Latest Weather Observations for Grove

IDT60801

Issued at 5:32 pm EDT Tuesday 17 January 2017 (issued every 30 minutes, with the page automatically refreshed every 10 minutes)

About weather observations | Map of weather stations | Latest weather observations for TAS | Other Formats
Station Details ID: 094220 Name: GROVE (RESEARCH STATION) Lat: -42.99 Lon: 147.07 Height: 65.0 m
Data from the previous 72 hours. | See also: Recent months at Grove
Date/Time
EDT
Temp
°C
App
Temp
°C
Dew
Point
°C
Rel
Hum
%
Delta-T
°C
Wind Press
QNH
hPa
Press
MSL
hPa
Rain since
9am
mm
Dir  Spd
km/h
Gust
km/h
Spd
kts
Gust
kts
17/05:30pm 19.2 16.1 11.6 61 4.2 SW 19 28 10 15 - - 0.0
17/05:00pm 19.7 16.6 11.6 59 4.5 SW 19 32 10 17 - - 0.0
17/04:30pm 20.4 17.5 10.9 54 5.2 SW 17 26 9 14 - - 0.0
17/04:00pm 20.5 17.9 10.6 53 5.4 WSW 15 22 8 12 - - 0.0
17/03:30pm 20.8 18.5 10.5 51 5.6 SW 13 24 7 13 - - 0.0
17/03:00pm 20.8 17.7 10.3 51 5.7 SW 17 28 9 15 - - 0.0
17/02:30pm 21.7 18.1 9.9 47 6.4 SW 19 28 10 15 - - 0.0
17/02:00pm 22.0 19.5 9.8 45 6.6 SW 13 20 7 11 - - 0.0
17/01:30pm 23.9 20.6 9.6 40 7.8 WNW 17 26 9 14 - - 0.0
17/01:00pm 24.7 21.5 9.8 39 8.2 WNW 17 28 9 15 - - 0.0
17/12:30pm 23.5 19.4 8.8 39 7.9 NW 20 33 11 18 - - 0.0
17/12:00pm 23.3 19.4 8.5 38 7.9 W 19 32 10 17 - - 0.0
17/11:30am 23.2 19.6 8.3 38 7.9 W 17 28 9 15 - - 0.0
17/11:00am 22.0 19.1 8.1 41 7.3 W 13 24 7 13 - - 0.0
17/10:30am 20.9 17.7 8.6 45 6.5 SW 15 33 8 18 - - 0.0
17/10:00am 19.7 16.9 8.6 48 5.8 SSW 13 22 7 12 - - 0.0
17/09:30am 19.2 16.1 8.7 50 5.5 SSW 15 20 8 11 - - 0.0
17/09:00am 18.2 16.2 8.8 54 4.9 SE 9 13 5 7 - - 0.0
17/08:30am 16.6 15.2 9.7 63 3.6 E 7 13 4 7 - - 0.0
17/08:00am 13.7 12.9 9.8 77 2.0 S 4 7 2 4 - - 0.0
17/07:30am 11.8 10.4 9.0 83 1.4 NNE 6 9 3 5 - - 0.0
17/07:00am 9.0 7.2 8.0 93 0.5 NE 7 11 4 6 - - 0.0
17/06:30am 7.0 4.9 6.6 97 0.2 NE 7 9 4 5 - - 0.0
17/06:00am 6.7 4.7 6.3 97 0.2 N 6 9 3 5 - - 0.0
17/05:30am 7.0 5.0 6.3 95 0.3 NNE 6 7 3 4 - - 0.0
17/05:00am 7.3 5.2 6.6 95 0.3 NE 7 9 4 5 - - 0.0
17/04:30am 7.5 5.5 6.9 96 0.3 N 7 9 4 5 - - 0.0
17/04:00am 7.6 5.5 6.5 93 0.5 NE 7 9 4 5 - - 0.0
17/03:30am 8.1 6.1 7.2 94 0.4 NNE 7 7 4 4 - - 0.0
17/03:00am 8.6 6.7 7.5 93 0.5 NNE 7 9 4 5 - - 0.0
17/02:30am 9.2 7.6 8.0 92 0.6 NE 6 7 3 4 - - 0.0
17/02:00am 10.0 7.8 7.7 86 1.1 ENE 9 13 5 7 - - 0.0
17/01:30am 10.4 8.5 7.7 83 1.3 NNE 7 11 4 6 - - 0.0
17/01:00am 11.1 9.3 8.0 81 1.5 NE 7 9 4 5 - - 0.0
17/12:30am 11.1 8.9 8.0 81 1.5 NE 9 13 5 7 - - 0.0
17/12:00am 12.1 10.0 8.3 77 1.9 NE 9 13 5 7 - - 0.0
 
Date/Time
EDT
Temp
°C
App
Temp
°C
Dew
Point
°C
Rel
Hum
%
Delta-T
°C
Wind Press
QNH
hPa
Press
MSL
hPa
Rain since
9am
mm
Dir  Spd
km/h
Gust
km/h
Spd
kts
Gust
kts
16/11:30pm 14.7 13.0 7.4 61 3.6 S 6 11 3 6 - - 0.0
16/11:00pm 15.8 13.4 6.9 55 4.4 SSW 9 17 5 9 - - 0.0
16/10:30pm 15.9 14.0 7.5 57 4.2 S 7 13 4 7 - - 0.0
16/10:00pm 16.8 14.9 7.7 55 4.6 WNW 7 15 4 8 - - 0.0
16/09:30pm 17.0 14.4 7.7 54 4.7 SSW 11 19 6 10 - - 0.0
16/09:00pm 18.2 15.5 7.3 49 5.5 SSW 11 19 6 10 - - 0.0
16/08:30pm 19.8 16.6 6.7 42 6.6 WSW 13 20 7 11 - - 0.0
16/08:00pm 22.4 20.2 6.3 35 8.2 WSW 7 11 4 6 - - 0.0
16/07:30pm 22.8 19.8 7.5 37 8.0 WSW 13 20 7 11 - - 0.0
16/07:00pm 23.3 19.9 7.7 36 8.2 WSW 15 26 8 14 - - 0.0
16/06:30pm 23.4 19.2 7.3 35 8.4 SW 19 26 10 14 - - 0.0
16/06:00pm 23.5 19.9 6.9 34 8.6 S 15 24 8 13 - - 0.0
16/05:30pm 23.6 20.4 6.8 34 8.7 SW 13 24 7 13 - - 0.0
16/05:00pm 23.2 18.8 6.5 34 8.6 S 19 30 10 16 - - 0.0
16/04:30pm 23.1 19.1 6.6 34 8.5 SSW 17 28 9 15 - - 0.0
16/04:00pm 23.1 19.5 6.6 34 8.5 SW 15 28 8 15 - - 0.0
16/03:30pm 23.0 19.0 6.7 35 8.4 SSW 17 28 9 15 - - 0.0
16/03:00pm 23.0 18.7 7.2 36 8.2 WSW 19 26 10 14 - - 0.0
16/02:30pm 22.5 17.4 5.9 34 8.4 W 22 32 12 17 - - 0.0
16/02:00pm 23.0 19.8 8.3 39 7.8 WNW 15 22 8 12 - - 0.0
16/01:30pm 22.5 18.1 6.7 36 8.1 WNW 19 26 10 14 - - 0.0
16/01:00pm 20.6 18.7 7.4 42 6.8 SE 7 17 4 9 - - 0.0
16/12:30pm 20.8 16.8 6.6 39 7.2 W 17 28 9 15 - - 0.0
16/12:00pm 20.7 17.8 8.3 45 6.5 WNW 13 24 7 13 - - 0.0
16/11:30am 19.7 17.2 6.6 42 6.6 WNW 9 17 5 9 - - 0.0
16/11:00am 19.4 16.7 7.2 45 6.2 SW 11 22 6 12 - - 0.0
16/10:30am 17.9 14.8 7.2 49 5.4 SW 13 24 7 13 - - 0.0
16/10:00am 17.3 13.8 7.4 52 5.0 SW 15 28 8 15 - - 0.0
16/09:30am 17.2 13.3 7.0 51 5.1 WSW 17 26 9 14 - - 0.0
16/09:00am 16.1 12.5 6.8 54 4.6 WSW 15 26 8 14 - - 0.0
16/08:30am 16.0 13.7 7.4 56 4.3 WSW 9 13 5 7 - - 0.0
16/08:00am 14.7 12.9 7.2 61 3.7 SW 6 9 3 5 - - 0.0
16/07:30am 14.0 13.6 8.2 68 2.9 CALM 0 0 0 0 - - 0.0
16/07:00am 13.5 12.1 8.7 73 2.4 SW 6 7 3 4 - - 0.0
16/06:30am 13.2 11.9 7.5 68 2.8 SSE 4 7 2 4 - - 0.0
16/06:00am 13.2 11.2 7.3 67 2.9 S 7 11 4 6 - - 0.0
16/05:30am 13.5 11.1 6.9 64 3.2 SSW 9 15 5 8 - - 0.0
16/05:00am 14.2 11.2 6.1 58 3.9 NW 11 20 6 11 - - 0.0
16/04:30am 14.2 10.8 6.1 58 3.9 NW 13 20 7 11 - - 0.0
16/04:00am 14.2 9.6 6.3 59 3.8 NW 20 35 11 19 - - 0.0
16/03:30am 14.3 11.0 6.2 58 3.9 WNW 13 22 7 12 - - 0.0
16/03:00am 14.6 10.0 5.6 54 4.3 NW 19 35 10 19 - - 0.0
16/02:30am 13.8 11.0 6.8 62 3.4 WNW 11 17 6 9 - - 0.0
16/02:00am 13.8 11.8 6.3 60 3.6 WNW 6 15 3 8 - - 0.0
16/01:30am 14.1 10.7 5.9 57 3.9 WNW 13 24 7 13 - - 0.0
16/01:00am 14.1 10.3 5.9 57 3.9 WNW 15 26 8 14 - - 0.0
16/12:30am 14.3 9.8 5.9 57 4.0 NW 19 28 10 15 - - 0.0
16/12:00am 14.5 11.2 6.4 58 3.9 NNW 13 20 7 11 - - 0.0
 
Date/Time
EDT
Temp
°C
App
Temp
°C
Dew
Point
°C
Rel
Hum
%
Delta-T
°C
Wind Press
QNH
hPa
Press
MSL
hPa
Rain since
9am
mm
Dir  Spd
km/h
Gust
km/h
Spd
kts
Gust
kts
15/11:30pm 14.5 10.8 6.4 58 3.9 WNW 15 32 8 17 - - 0.0
15/11:00pm 14.5 12.1 6.9 60 3.7 W 9 15 5 8 - - 0.0
15/10:30pm 14.7 11.8 6.5 58 4.0 N 11 19 6 10 - - 0.0
15/10:00pm 14.5 12.5 7.2 61 3.6 WNW 7 19 4 10 - - 0.0
15/09:30pm 14.6 12.2 6.8 59 3.8 NW 9 15 5 8 - - 0.0
15/09:00pm 14.8 11.9 6.6 58 4.0 NNW 11 19 6 10 - - 0.0
15/08:30pm 15.0 11.3 6.3 56 4.2 W 15 22 8 12 - - 0.0
15/08:00pm 15.2 10.7 6.3 55 4.3 W 19 26 10 14 - - 0.0
15/07:30pm 15.5 11.5 6.5 55 4.4 W 17 30 9 16 - - 0.0
15/07:00pm 16.2 11.1 6.1 51 4.9 NW 22 46 12 25 - - 0.0
15/06:30pm 16.2 12.5 6.4 52 4.8 NW 15 26 8 14 - - 0.0
15/06:00pm 16.1 12.8 6.3 52 4.8 NW 13 22 7 12 - - 0.0
15/05:30pm 16.2 12.5 6.1 51 4.9 W 15 33 8 18 - - 0.0
15/05:00pm 16.7 12.2 6.0 49 5.2 W 19 30 10 16 - - 0.0
15/04:30pm 18.4 14.2 5.8 43 6.2 WSW 17 35 9 19 - - 0.0
15/04:00pm 18.3 12.4 5.6 43 6.2 W 26 46 14 25 - - 0.0
15/03:58pm 18.3 12.0 5.9 44 6.1 WSW 28 46 15 25 - - 0.0
15/03:30pm 18.7 14.2 6.2 44 6.2 WNW 19 32 10 17 - - 0.0
15/03:00pm 17.1 12.2 5.3 45 5.7 W 20 35 11 19 - - 0.0
15/02:30pm 16.8 11.4 6.2 49 5.2 WNW 24 37 13 20 - - 0.0
15/02:00pm 17.1 12.5 5.8 47 5.5 WNW 19 28 10 15 - - 0.0
15/01:30pm 17.1 12.6 6.1 48 5.4 WNW 19 32 10 17 - - 0.0
15/01:00pm 17.3 11.7 5.3 45 5.8 WSW 24 39 13 21 - - 0.0
15/12:30pm 17.5 12.0 5.8 46 5.7 WSW 24 39 13 21 - - 0.0
15/12:00pm 16.4 12.3 6.2 51 5.0 W 17 30 9 16 - - 0.0
15/11:30am 17.4 11.9 5.7 46 5.7 WSW 24 37 13 20 - - 0.0
15/11:00am 16.1 12.1 4.7 46 5.4 SW 15 20 8 11 - - 0.0
15/10:30am 14.6 10.5 4.5 50 4.7 WSW 15 33 8 18 - - 0.0
15/10:00am 13.9 8.7 3.8 50 4.6 WSW 20 32 11 17 - - 0.0
15/09:30am 13.9 8.7 3.5 49 4.7 WSW 20 33 11 18 - - 0.0
15/09:00am 13.6 10.1 3.7 51 4.5 W 11 22 6 12 - - 0.0
15/08:30am 13.0 9.0 3.1 51 4.4 W 13 20 7 11 - - 0.0
15/08:00am 12.8 7.2 3.4 53 4.2 WSW 22 43 12 23 - - 0.0
15/07:30am 12.7 6.6 2.7 50 4.4 WSW 24 39 13 21 - - 0.0
15/07:00am 12.3 7.1 2.7 52 4.2 W 19 30 10 16 - - 0.0
15/06:30am 12.0 7.7 3.5 56 3.8 WSW 15 26 8 14 - - 0.0
15/06:00am 12.0 8.5 3.5 56 3.8 WSW 11 17 6 9 - - 0.0
15/05:30am 12.2 8.5 2.3 51 4.3 SW 11 19 6 10 - - 0.0
15/05:00am 12.2 7.3 1.7 48 4.5 W 17 26 9 14 - - 0.0
15/04:30am 12.2 5.5 1.7 48 4.5 WSW 26 43 14 23 - - 0.0
15/04:00am 12.0 6.4 1.4 48 4.5 WSW 20 32 11 17 - - 0.0
15/03:30am 11.9 8.1 1.6 49 4.4 WSW 11 19 6 10 - - 0.0
15/03:00am 12.0 7.1 1.7 49 4.4 WSW 17 28 9 15 - - 0.0
15/02:30am 11.6 8.9 3.5 57 3.6 W 7 15 4 8 - - 0.0
15/02:00am 11.7 8.0 2.5 53 4.0 WSW 11 24 6 13 - - 0.0
15/01:30am 11.7 7.9 3.9 59 3.5 WSW 13 26 7 14 - - 0.0
15/01:00am 12.1 7.2 1.9 49 4.4 W 17 30 9 16 - - 0.0
15/12:44am 12.5 5.3 0.9 45 4.9 WSW 28 52 15 28 - - 0.0
15/12:30am 12.1 6.5 0.9 46 4.7 WSW 20 46 11 25 - - 0.0
15/12:00am 12.3 4.1 0.3 43 5.0 WSW 33 59 18 32 - - 0.0
 
Date/Time
EDT
Temp
°C
App
Temp
°C
Dew
Point
°C
Rel
Hum
%
Delta-T
°C
Wind Press
QNH
hPa
Press
MSL
hPa
Rain since
9am
mm
Dir  Spd
km/h
Gust
km/h
Spd
kts
Gust
kts
14/11:32pm 12.3 4.3 1.5 47 4.6 WSW 33 52 18 28 - - 0.0
14/11:30pm 12.3 4.3 1.5 47 4.6 WSW 33 50 18 27 - - 0.0
14/11:08pm 12.3 4.8 1.2 46 4.7 WSW 30 48 16 26 - - 0.0
14/11:00pm 12.3 4.4 1.2 46 4.7 WSW 32 46 17 25 - - 0.0
14/10:30pm 12.4 4.6 1.7 48 4.6 WSW 32 50 17 27 - - 0.0
14/10:00pm 12.5 4.5 1.5 47 4.7 WSW 33 69 18 37 - - 0.0
14/09:55pm 12.6 5.2 1.7 47 4.7 WSW 30 69 16 37 - - 0.0
14/09:32pm 12.6 5.5 1.4 46 4.8 WSW 28 46 15 25 - - 0.0
14/09:30pm 12.5 5.8 1.5 47 4.7 WSW 26 44 14 24 - - 0.0
14/09:00pm 12.6 7.1 2.0 48 4.6 WSW 20 32 11 17 - - 0.0
14/08:30pm 13.0 7.4 1.3 45 5.0 SW 20 28 11 15 - - 0.0
14/08:00pm 13.3 7.8 2.1 46 4.9 SSW 20 37 11 20 - - 0.0
14/07:30pm 13.7 7.3 1.1 42 5.4 SW 24 39 13 21 - - 0.0
14/07:00pm 13.9 8.3 1.1 41 5.5 SW 20 35 11 19 - - 0.0
14/06:30pm 14.1 8.4 2.9 47 5.0 WSW 22 32 12 17 - - 0.0
14/06:00pm 14.1 7.2 2.6 46 5.1 WSW 28 44 15 24 - - 0.0
14/05:33pm 14.3 7.6 3.8 49 4.8 WSW 28 52 15 28 - - 0.0

Other Formats:

Comma delimited format used in spreadsheet applications
http://www.bom.gov.au/fwo/IDT60801/IDT60801.95977.axf

JavaScript Object Notation format (JSON) in row-major order
http://www.bom.gov.au/fwo/IDT60801/IDT60801.95977.json